Time;durP1;ratioP1;P1;durP2;ratioP2;P2;SDS_P1;SDS_P2;PMS_P1;PMS_P2;Temp;Humidity;BMP_temperature;BMP_pressure;BME280_temperature;BME280_humidity;BME280_pressure;Samples;Min_cycle;Max_cycle;Signal;HPM_P1;HPM_P2
2023/08/10 00:00:44;;;;;;;7.05;1.95;;;42.20;31.10;;;;;;5042658;28;20051;-59
2023/08/10 00:03:11;;;;;;;5.78;1.80;;;42.00;31.40;;;;;;5038423;28;20040;-61
2023/08/10 00:05:37;;;;;;;3.28;1.70;;;42.00;31.80;;;;;;5038725;28;20045;-56
2023/08/10 00:08:04;;;;;;;6.85;1.67;;;41.90;32.40;;;;;;5041029;28;20424;-59
2023/08/10 00:10:30;;;;;;;14.68;3.03;;;41.90;32.60;;;;;;5042020;28;20131;-62
2023/08/10 00:12:56;;;;;;;3.47;1.83;;;41.80;32.70;;;;;;5040546;28;20084;-58
2023/08/10 00:15:23;;;;;;;6.63;2.10;;;41.70;32.40;;;;;;5036790;28;20467;-58
2023/08/10 00:17:49;;;;;;;6.18;2.20;;;41.60;33.40;;;;;;5042822;28;20050;-59
2023/08/10 00:20:17;;;;;;;8.68;2.67;;;41.50;33.60;;;;;;5043853;28;20070;-58
2023/08/10 00:22:43;;;;;;;5.85;2.47;;;41.50;33.40;;;;;;5042995;28;20097;-58
2023/08/10 00:25:10;;;;;;;12.80;2.88;;;41.40;33.60;;;;;;5042937;28;20055;-61
2023/08/10 00:27:38;;;;;;;7.30;2.70;;;41.20;33.90;;;;;;5036874;28;20053;-57
2023/08/10 00:30:06;;;;;;;7.10;2.42;;;41.20;33.90;;;;;;5039791;28;20054;-60
2023/08/10 00:32:32;;;;;;;10.77;2.50;;;41.00;34.00;;;;;;5036801;28;20053;-59
2023/08/10 00:34:59;;;;;;;7.95;3.03;;;41.00;34.10;;;;;;5029921;28;20069;-58
2023/08/10 00:37:26;;;;;;;7.07;2.53;;;40.90;34.40;;;;;;5035475;28;20659;-59
2023/08/10 00:39:52;;;;;;;7.22;2.20;;;40.80;34.60;;;;;;5046609;28;20063;-59
2023/08/10 00:42:19;;;;;;;12.63;3.30;;;40.70;34.70;;;;;;5046548;28;20066;-61
2023/08/10 00:44:45;;;;;;;8.52;2.60;;;40.70;34.80;;;;;;5050197;28;20062;-57
2023/08/10 00:47:11;;;;;;;13.23;2.78;;;40.60;34.80;;;;;;5048368;28;20059;-59
2023/08/10 00:49:38;;;;;;;7.50;2.53;;;40.60;34.70;;;;;;5049309;28;20443;-56
2023/08/10 00:52:05;;;;;;;12.52;2.85;;;40.60;34.70;;;;;;5049248;28;20074;-58
2023/08/10 00:54:32;;;;;;;7.10;2.35;;;40.50;34.60;;;;;;5047037;28;20093;-57
2023/08/10 00:56:59;;;;;;;12.07;2.67;;;40.40;34.90;;;;;;5045384;28;20062;-58
2023/08/10 00:59:27;;;;;;;7.93;2.40;;;40.40;34.90;;;;;;5047871;28;20528;-57
2023/08/10 01:01:54;;;;;;;9.40;2.15;;;40.40;35.10;;;;;;5046864;28;20234;-57
2023/08/10 01:04:20;;;;;;;13.85;2.97;;;40.50;35.00;;;;;;5045955;28;20055;-59
2023/08/10 01:07:29;;;;;;;10.85;3.00;;;40.60;35.10;;;;;;5048470;28;20055;-57
2023/08/10 01:10:28;;;;;;;15.63;2.60;;;40.60;35.20;;;;;;5047100;28;20067;-60
2023/08/10 01:13:06;;;;;;;14.55;2.80;;;40.60;35.20;;;;;;5046625;28;20142;-59
2023/08/10 01:15:44;;;;;;;7.00;2.08;;;40.60;35.30;;;;;;5046743;28;20103;-55
2023/08/10 01:18:15;;;;;;;10.65;2.88;;;40.60;35.10;;;;;;5048245;28;20148;-56
2023/08/10 01:20:43;;;;;;;13.55;3.15;;;40.60;35.20;;;;;;5049516;28;20125;-62
2023/08/10 01:23:35;;;;;;;15.38;3.22;;;40.70;35.10;;;;;;5048988;28;20085;-57
2023/08/10 01:26:02;;;;;;;14.02;3.10;;;40.60;35.50;;;;;;5041602;28;20068;-57
2023/08/10 01:28:32;;;;;;;13.20;2.90;;;40.60;36.10;;;;;;5048985;28;20051;-61
2023/08/10 01:31:00;;;;;;;10.65;3.13;;;40.60;35.40;;;;;;5047323;28;20059;-58
2023/08/10 01:33:27;;;;;;;10.02;2.25;;;40.50;35.50;;;;;;5049012;28;20432;-62
2023/08/10 01:35:54;;;;;;;7.82;2.00;;;40.50;35.70;;;;;;5048931;28;20054;-57
2023/08/10 01:38:20;;;;;;;12.27;2.10;;;40.30;35.70;;;;;;5045450;28;20564;-60
2023/08/10 01:40:51;;;;;;;16.20;2.42;;;40.20;35.90;;;;;;5045861;28;20426;-60
2023/08/10 01:43:17;;;;;;;7.85;2.25;;;40.10;35.80;;;;;;5045893;28;20446;-57
2023/08/10 01:45:49;;;;;;;9.55;2.20;;;40.00;36.10;;;;;;5046537;28;20528;-58
2023/08/10 01:48:30;;;;;;;8.80;2.30;;;39.90;36.30;;;;;;5046400;28;20092;-60
2023/08/10 01:51:00;;;;;;;16.00;2.58;;;39.80;36.50;;;;;;5044709;28;20074;-58
2023/08/10 01:53:30;;;;;;;10.85;2.10;;;39.80;36.60;;;;;;5041842;28;20482;-60
2023/08/10 01:55:57;;;;;;;7.68;2.00;;;39.80;36.60;;;;;;5044210;28;20482;-58
2023/08/10 01:58:23;;;;;;;10.57;2.25;;;40.00;36.30;;;;;;5047693;28;20138;-59
2023/08/10 02:00:51;;;;;;;11.65;2.47;;;40.20;36.00;;;;;;5048000;28;20061;-59
2023/08/10 02:03:18;;;;;;;12.07;3.13;;;39.90;36.50;;;;;;5044939;28;20067;-57
2023/08/10 02:05:45;;;;;;;11.85;2.88;;;39.60;37.00;;;;;;5046030;28;20057;-59
2023/08/10 02:08:11;;;;;;;19.38;2.90;;;39.30;37.50;;;;;;5048086;28;20462;-58
2023/08/10 02:10:38;;;;;;;8.43;2.85;;;39.00;37.80;;;;;;5048212;28;20115;-56
2023/08/10 02:13:04;;;;;;;21.13;2.97;;;38.90;37.90;;;;;;5047586;28;20061;-58
2023/08/10 02:15:30;;;;;;;13.73;2.63;;;38.70;38.30;;;;;;5048180;28;20071;-57
2023/08/10 02:17:57;;;;;;;11.38;3.10;;;38.50;38.50;;;;;;5047444;28;20410;-59
2023/08/10 02:20:23;;;;;;;9.93;3.10;;;38.40;38.60;;;;;;5048699;28;20125;-58
2023/08/10 02:22:52;;;;;;;9.82;2.40;;;38.30;38.80;;;;;;5045513;28;20076;-58
2023/08/10 02:25:20;;;;;;;11.48;2.88;;;38.20;39.10;;;;;;5044387;28;20415;-56
2023/08/10 02:27:50;;;;;;;17.40;3.35;;;38.00;39.00;;;;;;5044656;28;20139;-58
2023/08/10 02:30:25;;;;;;;15.30;3.17;;;38.00;39.30;;;;;;5047675;28;20443;-59
2023/08/10 02:32:51;;;;;;;16.75;3.45;;;37.80;39.30;;;;;;5046083;28;20076;-60
2023/08/10 02:35:18;;;;;;;18.10;4.32;;;37.70;39.50;;;;;;5048240;28;20154;-57
2023/08/10 02:37:44;;;;;;;26.75;5.13;;;37.60;39.70;;;;;;5047192;28;20588;-59
2023/08/10 02:40:11;;;;;;;27.33;4.03;;;37.40;39.90;;;;;;5048297;28;20169;-60
2023/08/10 02:42:38;;;;;;;21.83;4.13;;;37.30;40.20;;;;;;5046726;28;20090;-58
2023/08/10 02:45:07;;;;;;;16.42;4.10;;;37.30;40.30;;;;;;5046909;28;20074;-58
2023/08/10 02:47:34;;;;;;;16.20;3.50;;;37.20;40.40;;;;;;5046429;28;20066;-56
2023/08/10 02:50:02;;;;;;;23.58;4.10;;;37.10;40.50;;;;;;5045715;28;20119;-61
2023/08/10 02:52:28;;;;;;;20.15;3.05;;;37.10;40.70;;;;;;5045073;28;20167;-57
2023/08/10 02:54:55;;;;;;;16.35;3.53;;;37.00;40.80;;;;;;5044187;28;20583;-59
2023/08/10 02:57:21;;;;;;;11.30;3.10;;;36.90;41.00;;;;;;5042324;28;20427;-56
2023/08/10 02:59:47;;;;;;;11.60;3.25;;;36.90;41.10;;;;;;5043648;28;20075;-58
2023/08/10 03:02:17;;;;;;;16.00;3.42;;;36.80;41.20;;;;;;5043599;28;20092;-57
2023/08/10 03:04:44;;;;;;;15.65;3.30;;;36.80;41.40;;;;;;5047886;28;20478;-59
2023/08/10 03:07:11;;;;;;;23.02;3.40;;;36.70;41.30;;;;;;5043545;28;20205;-57
2023/08/10 03:09:38;;;;;;;17.05;3.33;;;36.70;41.50;;;;;;5045068;28;20488;-59
2023/08/10 03:12:05;;;;;;;15.82;3.70;;;36.60;41.40;;;;;;5041501;28;20177;-57
2023/08/10 03:14:31;;;;;;;13.45;3.33;;;36.50;41.40;;;;;;5044366;28;20085;-60
2023/08/10 03:16:58;;;;;;;7.00;2.63;;;36.50;41.60;;;;;;5040467;28;20533;-57
2023/08/10 03:19:25;;;;;;;8.43;2.80;;;36.50;41.80;;;;;;5045163;28;20082;-62
2023/08/10 03:21:51;;;;;;;11.88;3.00;;;36.50;41.70;;;;;;5046453;28;20103;-57
2023/08/10 03:24:18;;;;;;;9.63;3.10;;;36.30;41.80;;;;;;5046838;28;20595;-58
2023/08/10 03:26:44;;;;;;;10.02;2.63;;;36.30;41.90;;;;;;5046661;28;20425;-58
2023/08/10 03:29:10;;;;;;;9.30;2.97;;;36.20;41.90;;;;;;5045935;28;20106;-57
2023/08/10 03:31:37;;;;;;;9.68;2.80;;;36.10;42.00;;;;;;5046744;28;20083;-54
2023/08/10 03:34:03;;;;;;;10.60;3.72;;;36.00;42.10;;;;;;5047762;28;20125;-55
2023/08/10 03:36:30;;;;;;;5.97;2.63;;;35.90;42.30;;;;;;5066383;22;20134;-60
2023/08/10 03:38:56;;;;;;;16.92;3.10;;;35.90;42.30;;;;;;5045585;28;20092;-56
2023/08/10 03:41:22;;;;;;;9.68;2.85;;;35.90;42.40;;;;;;5046177;28;20092;-54
2023/08/10 03:43:49;;;;;;;6.97;3.03;;;35.80;42.50;;;;;;5046048;28;20537;-57
2023/08/10 03:46:15;;;;;;;15.50;3.72;;;35.80;42.50;;;;;;5044993;28;20082;-59
2023/08/10 03:48:41;;;;;;;10.63;3.50;;;35.80;42.80;;;;;;5044754;28;20141;-56
2023/08/10 03:51:08;;;;;;;11.68;2.88;;;35.70;42.80;;;;;;5045957;28;20109;-60
2023/08/10 03:53:34;;;;;;;14.88;2.60;;;35.70;43.10;;;;;;5046235;28;20209;-58
2023/08/10 03:56:01;;;;;;;13.93;3.30;;;35.60;43.10;;;;;;5045802;28;20137;-54
2023/08/10 03:58:27;;;;;;;13.85;2.50;;;35.60;43.10;;;;;;5045844;28;20087;-57
2023/08/10 04:00:54;;;;;;;14.07;2.80;;;35.50;43.20;;;;;;5044328;28;20087;-56
2023/08/10 04:03:21;;;;;;;11.40;2.70;;;35.40;43.30;;;;;;5045037;28;20110;-58
2023/08/10 04:05:47;;;;;;;13.85;3.10;;;35.30;43.10;;;;;;5046534;28;20080;-58
2023/08/10 04:08:13;;;;;;;15.68;2.55;;;35.20;43.30;;;;;;5044795;28;20442;-57
2023/08/10 04:10:40;;;;;;;12.85;2.20;;;35.10;43.50;;;;;;5045130;28;20092;-58
2023/08/10 04:13:06;;;;;;;13.32;2.40;;;35.00;43.40;;;;;;5048377;28;20088;-55
2023/08/10 04:15:32;;;;;;;10.48;2.17;;;34.90;43.50;;;;;;5050706;28;20077;-53
2023/08/10 04:17:59;;;;;;;14.00;2.75;;;34.90;43.50;;;;;;5050117;28;20599;-56
2023/08/10 04:20:25;;;;;;;14.63;2.40;;;34.90;43.70;;;;;;5051052;28;20111;-57
2023/08/10 04:22:52;;;;;;;6.95;2.50;;;34.80;43.60;;;;;;5048082;28;20171;-56
2023/08/10 04:25:19;;;;;;;9.20;2.22;;;34.70;43.70;;;;;;5047550;28;20115;-57
2023/08/10 04:27:45;;;;;;;12.63;2.50;;;34.70;43.80;;;;;;5047190;28;20079;-56
2023/08/10 04:30:12;;;;;;;6.15;2.08;;;34.60;43.80;;;;;;5046726;28;20080;-54
2023/08/10 04:32:39;;;;;;;9.25;2.30;;;34.60;43.80;;;;;;5044164;28;20084;-60
2023/08/10 04:35:06;;;;;;;10.85;2.72;;;34.60;44.00;;;;;;5046690;28;20496;-59
2023/08/10 04:37:33;;;;;;;9.82;2.20;;;34.50;44.20;;;;;;5046696;28;20104;-57
2023/08/10 04:40:00;;;;;;;11.40;2.33;;;34.50;44.30;;;;;;5047477;28;20436;-57
2023/08/10 04:42:26;;;;;;;5.68;1.92;;;34.50;44.50;;;;;;5045504;28;20100;-57
2023/08/10 04:44:54;;;;;;;8.95;2.47;;;34.50;44.40;;;;;;5046185;28;20551;-59
2023/08/10 04:47:21;;;;;;;7.03;2.22;;;34.40;44.30;;;;;;5048533;28;20076;-58
2023/08/10 04:49:47;;;;;;;9.80;2.72;;;34.40;44.30;;;;;;5047811;28;20221;-59
2023/08/10 04:52:13;;;;;;;6.47;2.30;;;34.30;44.50;;;;;;5045594;28;20084;-57
2023/08/10 04:54:42;;;;;;;4.43;2.17;;;34.20;44.40;;;;;;5045154;28;20092;-56
2023/08/10 04:57:08;;;;;;;7.18;2.35;;;34.20;44.50;;;;;;5047623;28;20096;-58
2023/08/10 04:59:36;;;;;;;9.57;2.10;;;34.20;44.70;;;;;;5045928;28;20131;-58
2023/08/10 05:02:04;;;;;;;7.30;1.90;;;34.10;44.70;;;;;;5045241;28;20084;-57
2023/08/10 05:04:31;;;;;;;6.03;2.25;;;34.10;44.70;;;;;;5044579;28;20084;-61
2023/08/10 05:06:57;;;;;;;10.50;2.45;;;34.10;44.90;;;;;;5046615;28;20088;-58
2023/08/10 05:09:24;;;;;;;4.60;2.20;;;34.00;45.00;;;;;;5047655;28;20111;-59
2023/08/10 05:11:50;;;;;;;8.10;2.00;;;33.90;45.00;;;;;;5046563;28;20080;-57
2023/08/10 05:14:17;;;;;;;4.32;2.38;;;33.90;45.20;;;;;;5046348;28;20566;-58
2023/08/10 05:16:43;;;;;;;9.00;2.60;;;33.90;45.20;;;;;;5045707;28;20171;-59
2023/08/10 05:19:09;;;;;;;5.13;2.17;;;33.90;45.40;;;;;;5043601;28;20080;-59
2023/08/10 05:21:36;;;;;;;8.50;2.30;;;33.80;46.00;;;;;;5046654;28;20115;-59
2023/08/10 05:24:02;;;;;;;6.97;2.13;;;33.80;45.50;;;;;;5045767;28;20080;-54
2023/08/10 05:26:29;;;;;;;8.63;2.00;;;33.70;45.60;;;;;;5045937;28;20081;-57
2023/08/10 05:28:55;;;;;;;7.50;1.88;;;33.80;45.70;;;;;;5046627;28;20174;-60
2023/08/10 05:31:22;;;;;;;4.68;2.00;;;33.80;45.70;;;;;;5046837;28;20629;-60
2023/08/10 05:33:48;;;;;;;7.95;2.10;;;33.70;45.60;;;;;;5044878;28;20084;-58
2023/08/10 05:36:14;;;;;;;8.20;2.08;;;33.70;45.70;;;;;;5047007;28;20476;-56
2023/08/10 05:38:41;;;;;;;9.65;2.03;;;33.70;45.80;;;;;;5045420;28;20116;-57
2023/08/10 05:41:07;;;;;;;5.75;2.03;;;33.60;46.20;;;;;;5047406;28;20076;-57
2023/08/10 05:43:34;;;;;;;5.35;2.13;;;33.60;45.60;;;;;;5047999;28;20103;-58
2023/08/10 05:46:01;;;;;;;11.32;2.20;;;33.60;45.70;;;;;;5048173;28;20550;-57
2023/08/10 05:48:27;;;;;;;4.90;2.10;;;33.60;45.80;;;;;;5043484;28;20087;-59
2023/08/10 05:50:54;;;;;;;8.77;2.95;;;33.60;45.60;;;;;;5045584;28;20073;-59
2023/08/10 05:53:20;;;;;;;8.52;3.47;;;33.60;45.60;;;;;;5044155;28;20087;-58
2023/08/10 05:55:47;;;;;;;9.88;2.60;;;33.60;45.60;;;;;;5046523;28;20088;-64
2023/08/10 05:58:13;;;;;;;8.80;2.95;;;33.60;45.80;;;;;;5047458;28;20084;-56
2023/08/10 06:00:39;;;;;;;12.93;3.13;;;33.60;45.90;;;;;;5047149;28;20107;-58
2023/08/10 06:03:06;;;;;;;8.02;2.88;;;33.60;45.90;;;;;;5047479;28;20124;-56
2023/08/10 06:05:32;;;;;;;7.88;1.90;;;33.60;46.60;;;;;;5048243;28;20084;-58
2023/08/10 06:07:59;;;;;;;5.30;2.13;;;33.60;46.00;;;;;;5044617;28;20095;-57
2023/08/10 06:10:26;;;;;;;11.63;2.35;;;33.60;46.30;;;;;;5044912;28;20081;-55
2023/08/10 06:12:52;;;;;;;7.75;2.10;;;33.60;46.10;;;;;;5044800;28;20080;-57
2023/08/10 06:15:19;;;;;;;5.97;2.10;;;33.60;46.30;;;;;;5044310;28;20665;-57
2023/08/10 06:17:45;;;;;;;6.72;2.30;;;33.50;46.30;;;;;;5044092;28;20594;-58
2023/08/10 06:20:16;;;;;;;10.38;2.47;;;33.50;46.40;;;;;;5048294;28;20167;-55
2023/08/10 06:22:44;;;;;;;5.93;2.10;;;33.50;46.70;;;;;;5047149;28;20096;-57
2023/08/10 06:25:12;;;;;;;7.60;2.42;;;33.50;46.60;;;;;;5047789;28;20080;-58
2023/08/10 06:27:39;;;;;;;8.43;3.20;;;33.50;46.90;;;;;;5044432;28;20486;-60
2023/08/10 06:30:06;;;;;;;11.68;7.43;;;33.50;47.10;;;;;;5044447;28;20497;-56
2023/08/10 06:32:35;;;;;;;17.58;9.20;;;33.40;47.00;;;;;;5046052;28;20092;-58
2023/08/10 06:35:03;;;;;;;29.50;18.00;;;33.40;47.10;;;;;;5041512;28;20100;-55
2023/08/10 06:37:30;;;;;;;33.63;16.23;;;33.40;47.30;;;;;;5045562;28;20112;-61
2023/08/10 06:39:56;;;;;;;27.27;15.32;;;33.40;47.50;;;;;;5042129;28;20093;-56
2023/08/10 06:42:23;;;;;;;21.52;13.27;;;33.40;47.40;;;;;;5043573;28;20505;-55
2023/08/10 06:44:49;;;;;;;16.60;9.63;;;33.40;47.40;;;;;;5046000;28;20080;-52
2023/08/10 06:47:16;;;;;;;11.13;6.55;;;33.40;47.30;;;;;;5042214;28;20072;-57
2023/08/10 06:49:42;;;;;;;5.90;3.38;;;33.40;47.20;;;;;;5047119;28;20146;-54
2023/08/10 06:52:09;;;;;;;6.50;2.53;;;33.40;47.10;;;;;;5044666;28;20167;-59
2023/08/10 06:54:36;;;;;;;9.35;2.20;;;33.30;47.20;;;;;;5043836;28;20073;-56
2023/08/10 06:57:14;;;;;;;5.68;1.77;;;33.40;47.10;;;;;;5043356;28;20497;-59
2023/08/10 06:59:41;;;;;;;4.72;2.17;;;33.30;47.10;;;;;;5041935;28;20198;-55
2023/08/10 07:02:07;;;;;;;5.60;2.05;;;33.40;47.20;;;;;;5044813;28;20092;-52
2023/08/10 07:04:33;;;;;;;8.30;2.25;;;33.30;47.00;;;;;;5041712;28;20114;-57
2023/08/10 07:07:01;;;;;;;5.70;1.70;;;33.30;47.10;;;;;;5047601;28;20496;-57
2023/08/10 07:09:28;;;;;;;9.55;2.17;;;33.30;47.10;;;;;;5045742;28;20090;-56
2023/08/10 07:11:54;;;;;;;8.88;2.33;;;33.30;47.10;;;;;;5044208;28;20084;-56
2023/08/10 07:14:20;;;;;;;7.70;2.03;;;33.30;47.30;;;;;;5045528;28;20179;-56
2023/08/10 07:16:47;;;;;;;6.93;2.10;;;33.30;47.30;;;;;;5045545;28;20085;-56
2023/08/10 07:19:13;;;;;;;5.07;1.80;;;33.30;47.30;;;;;;5046634;28;20502;-58
2023/08/10 07:21:40;;;;;;;6.65;2.00;;;33.30;47.20;;;;;;5045753;28;20179;-54
2023/08/10 07:24:06;;;;;;;8.05;2.35;;;33.30;47.10;;;;;;5046333;28;20554;-57
2023/08/10 07:26:34;;;;;;;3.75;1.65;;;33.30;47.20;;;;;;5046179;28;20941;-58
2023/08/10 07:29:00;;;;;;;5.47;2.20;;;33.30;47.10;;;;;;5046231;28;20155;-56
2023/08/10 07:31:31;;;;;;;5.28;1.98;;;33.30;47.20;;;;;;5046639;28;20089;-56
2023/08/10 07:34:01;;;;;;;3.50;1.80;;;33.30;47.20;;;;;;5047068;28;20116;-57
2023/08/10 07:36:28;;;;;;;7.82;2.17;;;33.20;47.30;;;;;;5044401;28;20107;-56
2023/08/10 07:38:55;;;;;;;9.48;2.33;;;33.20;47.60;;;;;;5045862;28;20083;-57
2023/08/10 07:41:25;;;;;;;9.13;2.40;;;33.20;47.50;;;;;;5046053;28;20190;-58
2023/08/10 07:43:51;;;;;;;5.57;2.20;;;33.20;47.40;;;;;;5046302;28;20130;-55
2023/08/10 07:46:17;;;;;;;9.68;2.45;;;33.20;47.30;;;;;;5046685;28;20465;-58
2023/08/10 07:48:46;;;;;;;4.57;2.00;;;33.20;47.40;;;;;;5044770;28;20076;-56
2023/08/10 07:51:12;;;;;;;7.18;2.15;;;33.10;47.50;;;;;;5046325;28;20079;-55
2023/08/10 07:53:39;;;;;;;6.18;2.22;;;33.10;47.50;;;;;;5046709;28;20423;-56
2023/08/10 07:56:05;;;;;;;6.68;2.35;;;33.10;47.60;;;;;;5047074;28;20080;-57
2023/08/10 07:58:32;;;;;;;8.50;2.05;;;33.10;47.60;;;;;;5046307;28;20431;-57
2023/08/10 08:00:58;;;;;;;5.38;1.85;;;33.10;47.70;;;;;;5046209;28;20154;-55
2023/08/10 08:03:25;;;;;;;5.40;1.77;;;33.10;47.70;;;;;;5046517;28;20108;-56
2023/08/10 08:05:51;;;;;;;6.25;1.80;;;33.00;47.50;;;;;;5046851;28;20092;-56
2023/08/10 08:08:17;;;;;;;6.72;2.03;;;33.00;48.00;;;;;;5046453;28;20550;-57
2023/08/10 08:10:44;;;;;;;5.18;2.30;;;32.90;47.80;;;;;;5045422;28;20085;-59
2023/08/10 08:13:10;;;;;;;6.25;1.70;;;33.00;47.90;;;;;;5044974;28;20111;-55
2023/08/10 08:15:38;;;;;;;13.73;2.35;;;33.10;48.00;;;;;;5047012;28;20091;-57
2023/08/10 08:18:42;;;;;;;3.75;1.90;;;33.00;48.10;;;;;;5046897;28;20465;-57
2023/08/10 08:21:10;;;;;;;7.25;2.10;;;32.90;48.10;;;;;;5045885;28;20105;-58
2023/08/10 08:23:36;;;;;;;7.22;1.63;;;33.00;48.00;;;;;;5046586;28;20080;-55
2023/08/10 08:26:03;;;;;;;4.85;2.10;;;32.90;48.10;;;;;;5047053;28;20080;-58
2023/08/10 08:28:29;;;;;;;7.55;2.35;;;32.80;48.30;;;;;;5045168;28;20444;-57
2023/08/10 08:30:56;;;;;;;6.70;1.92;;;32.80;48.50;;;;;;5046436;28;20072;-56
2023/08/10 08:33:22;;;;;;;7.38;1.98;;;32.90;48.40;;;;;;5045780;28;20076;-58
2023/08/10 08:35:48;;;;;;;4.70;1.88;;;32.90;48.30;;;;;;5046578;28;20577;-58
2023/08/10 08:38:15;;;;;;;103.60;5.60;;;32.80;48.40;;;;;;5044770;28;20100;-58
2023/08/10 08:40:48;;;;;;;6.72;1.80;;;32.80;48.60;;;;;;5045439;28;20088;-57
2023/08/10 08:43:14;;;;;;;5.05;2.00;;;32.80;48.70;;;;;;5045382;28;20207;-60
2023/08/10 08:45:41;;;;;;;5.40;1.95;;;32.80;48.80;;;;;;5045754;28;20115;-59
2023/08/10 08:48:09;;;;;;;9.27;2.08;;;32.80;48.90;;;;;;5045725;28;20580;-59
2023/08/10 08:50:39;;;;;;;6.75;2.10;;;32.80;48.80;;;;;;5046818;28;20563;-57
2023/08/10 08:53:08;;;;;;;9.15;2.60;;;32.70;48.90;;;;;;5045485;28;20085;-56
2023/08/10 08:55:35;;;;;;;9.65;2.20;;;32.70;49.00;;;;;;5044629;28;20546;-57
2023/08/10 08:58:02;;;;;;;5.95;2.00;;;32.60;49.00;;;;;;5046237;28;20084;-57
2023/08/10 09:00:30;;;;;;;4.80;2.00;;;32.50;49.50;;;;;;5049236;28;20091;-57
2023/08/10 09:02:57;;;;;;;9.73;2.40;;;32.50;49.70;;;;;;5049416;28;20103;-56
2023/08/10 09:05:23;;;;;;;8.75;2.40;;;32.40;49.80;;;;;;5049502;28;20139;-57
2023/08/10 09:07:51;;;;;;;8.98;2.33;;;32.40;49.60;;;;;;5048595;28;20076;-57
2023/08/10 09:10:19;;;;;;;12.60;2.60;;;32.40;49.90;;;;;;5050407;28;20565;-57
2023/08/10 09:12:46;;;;;;;5.75;2.60;;;32.30;50.00;;;;;;5049459;28;20089;-57
2023/08/10 09:15:14;;;;;;;11.50;2.30;;;32.30;50.10;;;;;;5049377;28;20576;-59
2023/08/10 09:17:43;;;;;;;6.13;2.25;;;32.30;50.10;;;;;;5048921;28;20161;-57
2023/08/10 09:20:16;;;;;;;10.85;2.42;;;32.20;50.10;;;;;;5049360;28;20088;-58
2023/08/10 09:22:43;;;;;;;6.60;2.67;;;32.10;50.60;;;;;;5048712;28;20107;-56
2023/08/10 09:25:09;;;;;;;10.27;2.72;;;32.10;50.70;;;;;;5049092;28;20084;-56
2023/08/10 09:27:36;;;;;;;6.47;2.22;;;32.00;51.00;;;;;;5048762;28;20542;-56
2023/08/10 09:30:07;;;;;;;7.60;2.08;;;32.00;51.20;;;;;;5048308;28;20080;-55
2023/08/10 09:32:34;;;;;;;10.88;2.40;;;32.00;51.50;;;;;;5048844;28;20107;-54
2023/08/10 09:35:01;;;;;;;6.13;2.50;;;31.90;51.40;;;;;;5048944;28;20103;-55
2023/08/10 09:37:27;;;;;;;6.38;1.77;;;32.00;51.30;;;;;;5048516;28;20132;-56
2023/08/10 09:40:00;;;;;;;8.05;2.20;;;32.00;51.50;;;;;;5048237;28;20080;-57
2023/08/10 09:42:33;;;;;;;7.20;2.60;;;31.90;51.40;;;;;;5049605;28;20099;-55
2023/08/10 09:45:06;;;;;;;8.20;2.42;;;31.90;52.00;;;;;;5048461;28;20218;-58
2023/08/10 09:47:38;;;;;;;6.78;2.75;;;31.80;51.70;;;;;;5048882;28;20080;-58
2023/08/10 09:50:11;;;;;;;7.90;2.50;;;31.90;52.00;;;;;;5049147;28;20088;-59
2023/08/10 09:52:39;;;;;;;6.95;2.80;;;31.90;52.00;;;;;;5048193;28;20099;-55
2023/08/10 09:55:08;;;;;;;8.88;2.70;;;31.70;51.80;;;;;;5048357;28;20088;-53
2023/08/10 09:57:40;;;;;;;12.07;2.58;;;31.80;52.10;;;;;;5048298;28;20084;-57
2023/08/10 10:00:22;;;;;;;10.15;2.92;;;31.80;52.00;;;;;;5048704;28;20088;-55
2023/08/10 10:02:49;;;;;;;10.50;2.80;;;31.70;52.50;;;;;;5048301;28;20541;-55
2023/08/10 10:05:18;;;;;;;7.57;2.67;;;31.80;52.90;;;;;;5049956;28;20095;-55
2023/08/10 10:07:45;;;;;;;6.80;2.63;;;31.70;52.50;;;;;;5051826;28;20162;-53
2023/08/10 10:10:15;;;;;;;9.32;2.22;;;31.70;52.60;;;;;;5050690;28;20085;-55
2023/08/10 10:12:47;;;;;;;7.90;2.70;;;31.70;52.70;;;;;;5050676;28;20615;-56
2023/08/10 10:15:14;;;;;;;7.00;3.00;;;31.60;52.40;;;;;;5048721;28;20084;-57
2023/08/10 10:17:41;;;;;;;12.43;3.00;;;31.60;52.70;;;;;;5047708;28;20600;-55
2023/08/10 10:20:11;;;;;;;8.85;2.63;;;31.60;53.00;;;;;;5049291;28;20173;-55
2023/08/10 10:22:38;;;;;;;15.55;2.78;;;31.60;52.90;;;;;;5046990;28;20138;-55
2023/08/10 10:25:05;;;;;;;14.02;3.17;;;31.60;52.20;;;;;;5048036;28;20076;-56
2023/08/10 10:27:40;;;;;;;11.82;2.72;;;31.70;52.00;;;;;;5047672;28;20088;-54
2023/08/10 10:30:17;;;;;;;10.68;3.00;;;31.70;52.30;;;;;;5047565;28;20076;-57
2023/08/10 10:32:51;;;;;;;11.52;2.53;;;31.60;52.20;;;;;;5047290;28;20281;-55
2023/08/10 10:35:31;;;;;;;11.00;2.53;;;31.60;52.40;;;;;;5048703;28;20166;-55
2023/08/10 10:37:59;;;;;;;11.10;2.42;;;31.60;52.50;;;;;;5047594;28;20099;-58
2023/08/10 10:40:27;;;;;;;11.65;2.67;;;31.60;52.60;;;;;;5047232;28;20175;-57
2023/08/10 10:43:06;;;;;;;5.45;1.95;;;31.50;52.90;;;;;;5046067;28;20099;-56
2023/08/10 10:45:43;;;;;;;6.45;2.40;;;31.50;52.70;;;;;;5046862;28;20103;-56
2023/08/10 10:48:13;;;;;;;5.95;2.40;;;31.40;53.10;;;;;;5047181;28;20104;-56
2023/08/10 10:50:40;;;;;;;8.18;2.20;;;31.40;53.20;;;;;;5048091;28;20512;-56
2023/08/10 10:53:13;;;;;;;5.15;2.40;;;31.40;53.30;;;;;;5047914;28;20092;-57
2023/08/10 10:55:41;;;;;;;9.73;2.17;;;31.40;53.00;;;;;;5046855;28;20161;-59
2023/08/10 10:58:12;;;;;;;4.03;1.95;;;31.30;53.00;;;;;;5047071;28;20128;-55
2023/08/10 11:00:40;;;;;;;4.47;2.42;;;31.40;53.20;;;;;;5047156;28;20078;-55
2023/08/10 11:03:08;;;;;;;7.38;2.10;;;31.40;53.30;;;;;;5047373;28;20206;-60
2023/08/10 11:05:36;;;;;;;6.65;2.00;;;31.30;53.10;;;;;;5046308;28;20080;-62
2023/08/10 11:08:03;;;;;;;7.75;2.10;;;31.20;53.40;;;;;;5047407;28;20080;-56
2023/08/10 11:10:35;;;;;;;7.30;1.98;;;31.30;53.60;;;;;;5045893;28;20167;-55
2023/08/10 11:13:07;;;;;;;9.15;2.30;;;31.30;53.60;;;;;;5047036;28;20206;-57
2023/08/10 11:15:34;;;;;;;8.05;2.25;;;31.30;53.80;;;;;;5046549;28;20112;-58
2023/08/10 11:18:03;;;;;;;9.48;2.00;;;31.30;53.70;;;;;;5047438;28;20095;-60
2023/08/10 11:20:30;;;;;;;7.05;1.85;;;31.30;53.40;;;;;;5046876;28;20089;-54
2023/08/10 11:22:56;;;;;;;7.10;2.17;;;31.30;53.60;;;;;;5044316;28;20570;-57
2023/08/10 11:25:25;;;;;;;5.50;2.30;;;31.30;53.90;;;;;;5046505;28;20122;-56
2023/08/10 11:27:53;;;;;;;4.80;2.08;;;31.30;53.70;;;;;;5045842;28;20142;-58
2023/08/10 11:30:22;;;;;;;10.52;2.70;;;31.30;54.00;;;;;;5045549;28;20080;-57
2023/08/10 11:32:52;;;;;;;8.15;2.50;;;31.30;53.70;;;;;;5046289;28;20158;-54
2023/08/10 11:35:20;;;;;;;11.70;2.75;;;31.30;54.30;;;;;;5046623;28;20449;-56
2023/08/10 11:37:51;;;;;;;4.50;2.05;;;31.30;53.90;;;;;;5047235;28;20165;-58
2023/08/10 11:40:23;;;;;;;8.00;2.63;;;31.20;54.10;;;;;;5046526;28;20092;-57
2023/08/10 11:43:02;;;;;;;10.23;2.50;;;31.20;53.90;;;;;;5046903;28;20688;-56
2023/08/10 11:45:29;;;;;;;8.45;2.20;;;31.20;54.20;;;;;;5044306;28;20134;-56
2023/08/10 11:48:00;;;;;;;12.25;2.60;;;31.10;54.40;;;;;;5046007;28;20077;-58
2023/08/10 11:50:29;;;;;;;6.88;2.50;;;31.10;54.70;;;;;;5047544;28;20098;-57
2023/08/10 11:52:58;;;;;;;7.65;2.63;;;31.10;54.60;;;;;;5045987;28;20092;-57
2023/08/10 11:55:27;;;;;;;9.25;2.42;;;31.10;54.70;;;;;;5046436;28;20088;-58
2023/08/10 11:57:58;;;;;;;11.93;2.97;;;31.10;54.90;;;;;;5045985;28;20084;-56
2023/08/10 12:00:30;;;;;;;7.88;2.47;;;31.10;55.20;;;;;;5046133;28;20088;-56
2023/08/10 12:03:14;;;;;;;14.50;2.45;;;31.10;55.00;;;;;;5045721;28;20108;-57
2023/08/10 12:05:40;;;;;;;10.60;2.47;;;31.10;55.30;;;;;;5046456;28;20076;-57
2023/08/10 12:08:31;;;;;;;7.18;2.40;;;31.10;55.40;;;;;;5046375;28;20165;-56
2023/08/10 12:11:15;;;;;;;9.00;2.60;;;31.00;55.60;;;;;;5045832;28;20430;-57
2023/08/10 12:13:49;;;;;;;9.27;2.33;;;30.90;55.80;;;;;;5045528;28;20103;-59
2023/08/10 12:16:20;;;;;;;11.48;2.70;;;30.90;56.00;;;;;;5046294;28;20092;-54
2023/08/10 12:18:47;;;;;;;9.05;2.20;;;30.90;56.10;;;;;;5045778;28;20095;-56
2023/08/10 12:21:13;;;;;;;8.73;2.67;;;30.90;56.20;;;;;;5044834;28;20095;-55
2023/08/10 12:23:40;;;;;;;6.60;1.85;;;30.90;56.20;;;;;;5046008;28;20089;-55
2023/08/10 12:26:06;;;;;;;8.18;2.50;;;30.90;56.40;;;;;;5046445;28;20451;-54
2023/08/10 12:28:32;;;;;;;7.60;2.50;;;30.80;56.30;;;;;;5045239;28;20171;-55
2023/08/10 12:31:04;;;;;;;5.60;2.28;;;30.70;56.30;;;;;;5045625;28;20611;-58
2023/08/10 12:33:30;;;;;;;8.52;2.72;;;30.80;56.40;;;;;;5044871;28;20091;-57
2023/08/10 12:35:56;;;;;;;8.35;3.25;;;30.80;56.40;;;;;;5049862;28;20430;-62
2023/08/10 12:38:23;;;;;;;8.88;2.53;;;30.70;56.50;;;;;;5049926;28;20100;-57
2023/08/10 12:40:50;;;;;;;9.27;2.65;;;30.70;56.80;;;;;;5049818;28;20088;-59
2023/08/10 12:43:16;;;;;;;9.23;3.08;;;30.70;56.60;;;;;;5049830;28;20100;-57
2023/08/10 12:45:43;;;;;;;11.32;2.95;;;30.70;56.70;;;;;;5048441;28;20576;-61
2023/08/10 12:48:09;;;;;;;7.88;2.38;;;30.70;56.80;;;;;;5049383;28;20210;-60